Slide Mountain Weather observations

Data are for 10 minute period ending at time listed.
 Day   Time   Solar   Ave.   Ave.  Ave.  Vector  Max.    Baro.  
  of    of     Rad.   Air    Rel.  Wind   Wind   Wind   Press.  
Year   Day            Temp.  Hum.  Speed  Dir.   Gust           
2016   (PST)  Kw/m2    F      %     mph   deg.    mph     mb.   
-----------------------------------------------------------------
 240   20:10   0.00   54.5    21   14.7   276     23.4    719.2 
 240   20:20   0.00   54.4    22   13.7   271     21.9    719.3 
 240   20:30   0.00   54.1    22   14.0   273     21.5    719.3 
 240   20:40   0.00   54.0    22   13.7   276     23.0    719.4 
 240   20:50   0.00   53.9    23   13.5   278     21.7    719.3 
 240   21:00   0.00   53.8    22   12.6   281     21.0    719.4 
 240   21:10   0.00   53.6    22   12.8   280     21.7    719.4 
 240   21:20   0.00   53.5    21   12.3   279     20.5    719.5 
 240   21:30   0.00   53.5    22   11.7   274     21.4    719.5 
 240   21:40   0.00   53.7    22   12.1   273     20.4    719.5 
 240   21:50   0.00   53.7    23   12.1   276     20.0    719.5 
 240   22:00   0.00   53.5    23   13.6   278     24.4    719.4 
 240   22:10   0.00   53.5    23   13.9   277     23.3    719.3 
 240   22:20   0.00   53.5    24   14.8   278     23.6    719.3 
 240   22:30   0.00   53.5    24   15.6   279     26.5    719.3 
 240   22:40   0.00   53.5    25   15.6   278     24.6    719.3 
 240   22:50   0.00   53.3    25   15.0   279     24.4    719.3 
 240   23:00   0.00   53.3    25   15.6   278     25.3    719.3 
 240   23:10   0.00   53.3    26   15.4   278     23.8    719.3 
 240   23:20   0.00   53.1    26   14.6   277     24.5    719.4 
 240   23:30   0.00   53.1    26   14.5   272     23.2    719.4 
 240   23:40   0.00   53.2    25   14.6   272     23.8    719.3 
 240   23:50   0.00   53.2    25   15.4   271     24.1    719.3 
 241    0:00   0.00   53.0    25   14.9   271     24.5    719.4 
 241    0:10   0.00   53.0    22   15.1   269     23.9    719.4 
 241    0:20   0.00   52.8    21   15.8   269     25.4    719.4 
 241    0:30   0.00   52.9    21   16.4   270     26.6    719.4 
 241    0:40   0.00   52.8    20   16.6   273     28.3    719.3 
 241    0:50   0.00   52.4    19   16.1   272     25.7    719.3 
 241    1:00   0.00   52.4    19   17.1   268     27.4    719.4 
 241    1:10   0.00   52.4    18   17.4   268     25.8    719.4 
 241    1:20   0.00   52.2    19   16.3   268     25.9    719.5 
 241    1:30   0.00   52.2    20   15.2   267     23.6    719.5 
 241    1:40   0.00   52.2    22   14.1   265     22.1    719.6 
 241    1:50   0.00   52.4    21   15.2   266     24.3    719.5 
 241    2:00   0.00   52.6    20   16.9   265     28.3    719.5 
 241    2:10   0.00   52.5    20   16.6   268     26.7    719.5 
 241    2:20   0.00   51.8    20   16.5   268     26.9    719.5 
 241    2:30   0.00   51.9    19   17.5   266     27.6    719.4 
 241    2:40   0.00   51.8    18   18.2   266     27.7    719.4 
 241    2:50   0.00   51.7    19   17.2   267     28.2    719.5 
 241    3:00   0.00   51.6    19   18.2   268     27.4    719.5 
 241    3:10   0.00   51.6    20   18.4   267     29.3    719.4 
 241    3:20   0.00   51.6    23   18.5   264     29.4    719.4 
 241    3:30   0.00   51.9    25   17.8   264     27.3    719.4 
 241    3:40   0.00   51.4    23   17.8   268     27.2    719.4 
 241    3:50   0.00   51.3    23   17.7   266     27.1    719.4 
 241    4:00   0.00   51.3    23   15.5   263     25.2    719.5 
 241    4:10   0.00   51.2    23   12.7   262     21.0    719.7 
 241    4:20   0.00   51.3    25   12.6   261     22.3    719.7 
 241    4:30   0.00   51.6    27   12.8   260     21.4    719.7 
 241    4:40   0.00   51.6    27   11.4   259     20.1    719.8 
 241    4:50   0.00   51.1    26   10.9   261     19.2    719.8 
 241    5:00   0.00   51.2    25   12.6   259     22.0    719.8 
 241    5:10   0.00   51.5    23   12.7   259     24.1    719.9 
 241    5:20   0.00   51.6    21   12.8   258     23.7    720.0 
 241    5:30   0.01   51.7    20   13.9   260     24.2    720.1 
 241    5:40   0.02   51.8    20   15.1   263     22.8    720.1 
 241    5:50   0.04   51.7    20   14.7   264     24.1    720.1 
 241    6:00   0.07   51.3    23   14.9   264     23.4    720.2 
 241    6:10   0.10   51.4    27   14.3   263     23.5    720.3 
 241    6:20   0.12   51.5    29   12.7   263     21.1    720.4 
 241    6:30   0.15   51.6    30   11.7   261     21.0    720.5 
 241    6:40   0.18   51.8    30   11.0   258     19.9    720.5 
 241    6:50   0.21   52.1    29   10.8   257     20.8    720.6 
 241    7:00   0.24   52.4    28   10.7   259     23.0    720.6 
 241    7:10   0.27   52.7    28   10.7   254     22.7    720.7 
 241    7:20   0.30   52.9    28   11.9   255     20.5    720.8 
 241    7:30   0.33   53.3    28   11.3   255     19.3    720.8 
 241    7:40   0.35   53.7    27   10.1   253     18.1    720.9 
 241    7:50   0.38   54.0    26    9.7   248     18.3    721.0 
 241    8:00   0.41   54.5    24    9.2   251     17.4    721.1 
 241    8:10   0.43   54.8    21    9.4   249     17.2    721.2 
 241    8:20   0.46   55.0    20    9.5   250     15.9    721.2 
 241    8:30   0.48   55.4    20    9.1   249     16.4    721.3 
 241    8:40   0.51   55.7    22    9.6   249     20.5    721.4 
 241    8:50   0.53   55.8    21   10.4   249     18.8    721.5 
 241    9:00   0.56   56.2    20    9.7   252     19.2    721.5 
 241    9:10   0.58   56.6    20    9.6   250     17.5    721.6 
 241    9:20   0.60   56.9    20    9.7   252     19.8    721.7 
 241    9:30   0.62   57.4    21    9.7   249     24.6    721.7 
 241    9:40   0.64   57.2    21   10.7   251     22.3    721.7 
 241    9:50   0.66   57.6    22   11.4   248     21.1    721.6 
 241   10:00   0.68   58.0    22   10.2   254     19.3    721.7 
 241   10:10   0.69   58.9    21    9.9   251     20.2    721.8 
 241   10:20   0.71   58.3    22   11.1   254     23.0    721.7 
 241   10:30   0.72   59.0    21   10.9   255     23.4    721.7 
 241   10:40   0.73   59.4    21   10.4   252     19.9    721.8 
 241   10:50   0.74   59.6    21   11.1   252     20.0    721.8 
 241   11:00   0.76   59.9    20   11.8   249     22.5    721.8 
 241   11:10   0.77   60.1    20   10.4   254     19.9    721.8 
 241   11:20   0.77   60.7    21   10.8   251     24.0    721.9 
 241   11:30   0.78   61.2    21   10.0   250     19.3    721.8 
 241   11:40   0.78   61.6    20   10.2   254     19.6    721.8 
 241   11:50   0.78   61.1    21   11.2   253     22.7    721.8 
 241   12:00   0.79   61.2    20   11.9   253     24.2    721.8 
 241   12:10   0.79   61.4    20   12.0   260     24.7    721.9 
 241   12:20   0.78   62.0    19   12.0   252     21.2    721.9 
 241   12:30   0.78   61.4    20   13.5   261     23.1    721.9 
 241   12:40   0.78   61.8    19   12.8   253     23.8    721.9 
 241   12:50   0.77   62.6    20   12.8   256     23.3    721.9 
 241   13:00   0.76   62.3    19   13.9   252     27.7    721.8 
 241   13:10   0.76   63.0    19   12.5   255     24.6    721.8 
 241   13:20   0.74   62.7    19   13.9   249     26.4    721.8 
 241   13:30   0.73   63.9    18   12.9   250     25.5    721.7 
 241   13:40   0.72   63.0    18   14.0   252     24.5    721.7 
 241   13:50   0.71   63.1    18   14.0   250     26.7    721.7 
 241   14:00   0.69   64.0    19    9.7   250     22.7    721.7 
 241   14:10   0.67   64.2    20   11.1   249     26.3    721.7 
 241   14:20   0.66   64.0    20   11.7   253     26.1    721.6 
 241   14:30   0.64   64.6    20   10.1   249     22.6    721.5 
 241   14:40   0.62   65.0    20    9.8   251     20.2    721.5 
 241   14:50   0.59   64.6    20   10.5   247     23.6    721.6 
 241   15:00   0.57   65.0    20    9.9   251     23.9    721.6 
 241   15:10   0.55   64.9    19    8.3   251     22.5    721.7 
 241   15:20   0.52   65.6    20    8.2   250     17.9    721.6 
 241   15:30   0.49   65.3    20    9.1   251     21.4    721.6 
 241   15:40   0.47   64.7    20   11.2   249     21.2    721.5 
 241   15:50   0.44   64.1    22   11.9   247     22.2    721.5 
 241   16:00   0.42   63.7    22   12.5   252     25.9    721.4 
 241   16:10   0.39   62.8    22   14.0   252     26.4    721.3 
 241   16:20   0.36   62.7    23   12.6   251     25.7    721.3 
 241   16:30   0.33   63.0    22   11.5   248     24.6    721.3 
 241   16:40   0.30   62.7    24   12.1   252     23.7    721.3 
 241   16:50   0.27   61.7    23   12.2   248     20.7    721.3 
 241   17:00   0.24   61.4    24   12.5   251     25.7    721.4 
 241   17:10   0.21   60.7    24   12.6   251     24.3    721.4 
 241   17:20   0.19   60.2    25   12.1   252     20.2    721.4 
 241   17:30   0.16   60.2    26   10.4   246     19.3    721.5 
 241   17:40   0.13   59.2    25   12.4   251     27.7    721.4 
 241   17:50   0.11   58.5    26   12.8   249     24.2    721.4 
 241   18:00   0.08   57.6    26   13.6   251     23.1    721.4 
 241   18:10   0.05   56.9    27   12.8   250     22.5    721.4 
 241   18:20   0.02   55.8    28   13.2   248     22.9    721.4 
 241   18:30   0.01   54.9    29   11.9   244     23.1    721.5 
 241   18:40   0.00   54.4    29   11.9   249     22.6    721.5 
 241   18:50   0.00   54.2    28   11.6   245     24.6    721.7 
 241   19:00   0.00   54.1    27   10.7   243     21.7    721.7 
 241   19:10   0.00   54.0    26    9.8   239     18.5    721.7 
 241   19:20   0.00   53.8    26   10.0   238     17.1    721.8 
 241   19:30   0.00   53.7    24   11.1   236     18.4    721.8 
 241   19:40   0.00   53.6    24   10.7   241     19.4    721.9 
 241   19:50   0.00   53.5    22   11.0   240     19.5    721.9 
 241   20:00   0.00   53.3    22   10.4   240     17.9    721.9 

Return to Slide Mountain graphs page.


Western Regional Climate Center,wrcc@dri.edu